aviador You're here:

KSMX Decoded Metar

SANTA MARIA in CA, USA
Report Time2017-05-30 10:51:00
UTC Time2017-05-30 11:14:23
Flight Rules ifr IFR
Wind300° at 07 kt
W.Decomp.*RWY 30: 6.8 kt HW 1.7 kt LCW
RWY 20: 0.5 kt HW 7.0 kt RCW
W.Rank300° ranks 1
Current wind is below 300° avg. (10.1)
Visibility6437 m
Phenomena:Mist
Clouds:Overcast 005 Hf
Ceiling500 ft
Temp11°C (ISA -4)
Dew Point11°C (100% RH)
AAT8.8°C
QNH1014 hPa
Density Alt-33 ft
Elevation243 ft
Report Wrong Elevation
Raw Report
METAR KSMX 301051Z AUTO 30007KT 4SM BR OVC005 11/11 A2994 RMK AO2 SLP139
T01110111 $=

Extra information for KSMX:More info

Metar Taf Metar & Taf Last 4 Metars F.Rules Stats Wind Profile Meteogram Temp Stats Airport Information Weather charts Add Link Nearby VenuesMetar ALERT Operation Metar Decoded Social comments

AIRNAV info for KSMX